createdAt,value
2024-01-28T00:00:45.196Z,0.00
2024-01-28T00:01:45.167Z,0.00
2024-01-28T00:02:45.099Z,0.00
2024-01-28T00:03:45.047Z,0.00
2024-01-28T00:04:45.012Z,0.00
2024-01-28T00:05:45.017Z,0.00
2024-01-28T00:06:45.045Z,0.00
2024-01-28T00:07:44.982Z,0.00
2024-01-28T00:08:44.976Z,0.00
2024-01-28T00:09:45.059Z,0.00
2024-01-28T00:10:44.966Z,0.00
2024-01-28T00:11:44.963Z,0.00
2024-01-28T00:12:45.088Z,0.00
2024-01-28T00:13:44.943Z,0.00
2024-01-28T00:14:44.932Z,0.00
2024-01-28T00:15:45.049Z,0.00
2024-01-28T00:16:44.973Z,0.00
2024-01-28T00:17:44.935Z,0.00
2024-01-28T00:18:45.042Z,0.00
2024-01-28T00:19:45.115Z,0.00
2024-01-28T00:20:44.881Z,0.00
2024-01-28T00:21:44.897Z,0.00
2024-01-28T00:22:44.876Z,0.00
2024-01-28T00:23:44.864Z,0.00
2024-01-28T00:24:44.951Z,0.00
2024-01-28T00:25:44.869Z,0.00
2024-01-28T00:26:44.840Z,0.00
2024-01-28T00:27:44.887Z,0.00
2024-01-28T00:28:44.821Z,0.00
2024-01-28T00:29:44.827Z,0.00
2024-01-28T00:30:44.852Z,0.00
2024-01-28T00:31:44.802Z,0.00
2024-01-28T00:32:44.840Z,0.00
2024-01-28T00:33:44.878Z,0.00
2024-01-28T00:34:47.821Z,0.00
2024-01-28T00:35:44.783Z,0.00
2024-01-28T00:36:44.856Z,0.00
2024-01-28T00:37:44.763Z,0.00
2024-01-28T00:38:44.747Z,0.00
2024-01-28T00:39:44.881Z,0.00
2024-01-28T00:40:44.748Z,0.00
2024-01-28T00:41:44.744Z,0.00
2024-01-28T00:42:44.825Z,0.00
2024-01-28T00:43:44.716Z,0.00
2024-01-28T00:44:44.708Z,0.00
2024-01-28T00:45:44.785Z,0.00
2024-01-28T00:46:44.704Z,0.00
2024-01-28T00:47:44.702Z,0.00
2024-01-28T00:48:44.979Z,0.00
2024-01-28T00:49:44.806Z,0.00
2024-01-28T00:50:44.670Z,0.00
2024-01-28T00:51:44.806Z,0.00
2024-01-28T00:52:44.644Z,0.00
2024-01-28T00:53:44.661Z,0.00
2024-01-28T00:54:45.404Z,0.00
2024-01-28T00:55:44.633Z,0.00
2024-01-28T00:56:44.617Z,0.00
2024-01-28T00:57:44.692Z,0.00
2024-01-28T00:58:44.607Z,0.00
2024-01-28T00:59:44.598Z,0.00
2024-01-28T01:00:44.635Z,0.00
2024-01-28T01:01:44.582Z,0.00
2024-01-28T01:02:44.576Z,0.00
2024-01-28T01:03:44.694Z,0.00
2024-01-28T01:04:44.596Z,0.00
2024-01-28T01:05:44.583Z,0.00
2024-01-28T01:06:44.831Z,0.00
2024-01-28T01:07:44.539Z,0.00
2024-01-28T01:08:44.528Z,0.00
2024-01-28T01:09:44.558Z,0.00
2024-01-28T01:10:44.522Z,0.00
2024-01-28T01:11:44.542Z,0.00
2024-01-28T01:12:44.582Z,0.00
2024-01-28T01:13:44.486Z,0.00
2024-01-28T01:14:44.480Z,0.00
2024-01-28T01:15:44.552Z,0.00
2024-01-28T01:16:44.474Z,0.00
2024-01-28T01:17:44.525Z,0.00
2024-01-28T01:18:44.562Z,0.00
2024-01-28T01:19:44.662Z,0.00
2024-01-28T01:20:44.440Z,0.00
2024-01-28T01:21:44.610Z,0.00
2024-01-28T01:22:44.417Z,0.00
2024-01-28T01:23:44.406Z,0.00
2024-01-28T01:24:44.643Z,0.00
2024-01-28T01:25:44.404Z,0.00
2024-01-28T01:26:44.427Z,0.00
2024-01-28T01:27:44.514Z,0.00
2024-01-28T01:28:44.386Z,0.00
2024-01-28T01:29:44.397Z,0.00
2024-01-28T01:30:44.478Z,0.00
2024-01-28T01:31:44.381Z,0.00
2024-01-28T01:32:44.503Z,0.00
2024-01-28T01:33:44.584Z,0.00
2024-01-28T01:34:44.399Z,0.00
2024-01-28T01:35:44.314Z,0.00
2024-01-28T01:36:44.509Z,0.00
2024-01-28T01:37:44.376Z,0.00
2024-01-28T01:38:44.323Z,0.00
2024-01-28T01:39:44.400Z,0.00
2024-01-28T01:40:44.393Z,0.00
2024-01-28T01:41:44.273Z,0.00
2024-01-28T01:42:44.348Z,0.00
2024-01-28T01:43:44.269Z,0.00
2024-01-28T01:44:44.249Z,0.00
2024-01-28T01:45:44.535Z,0.00
2024-01-28T01:46:44.256Z,0.00
2024-01-28T01:47:44.348Z,0.00
2024-01-28T01:48:44.661Z,0.00
2024-01-28T01:49:44.454Z,0.00
2024-01-28T01:50:44.282Z,0.00
2024-01-28T01:51:44.340Z,0.00
2024-01-28T01:52:44.234Z,0.00
2024-01-28T01:53:44.331Z,0.00
2024-01-28T01:54:44.299Z,0.00
2024-01-28T01:55:44.251Z,0.00
2024-01-28T01:56:44.187Z,0.00
2024-01-28T01:57:44.226Z,0.00
2024-01-28T01:58:44.270Z,0.00
2024-01-28T01:59:44.148Z,0.00
2024-01-28T02:00:44.335Z,0.00
2024-01-28T02:01:44.149Z,0.00
2024-01-28T02:02:44.132Z,0.00
2024-01-28T02:03:44.190Z,0.00
2024-01-28T02:04:44.096Z,0.00
2024-01-28T02:05:44.425Z,0.00
2024-01-28T02:06:44.263Z,0.00
2024-01-28T02:07:44.070Z,0.00
2024-01-28T02:08:44.084Z,0.00
2024-01-28T02:09:44.210Z,0.00
2024-01-28T02:10:44.048Z,0.00
2024-01-28T02:11:44.040Z,0.00
2024-01-28T02:12:44.058Z,0.00
2024-01-28T02:13:44.028Z,0.00
2024-01-28T02:14:44.029Z,0.00
2024-01-28T02:15:44.048Z,0.00
2024-01-28T02:16:43.996Z,0.00
2024-01-28T02:17:44.006Z,0.00
2024-01-28T02:18:44.212Z,0.00
2024-01-28T02:19:44.041Z,0.00
2024-01-28T02:20:43.978Z,0.00
2024-01-28T02:21:44.012Z,0.00
2024-01-28T02:22:43.958Z,0.00
2024-01-28T02:23:43.959Z,0.00
2024-01-28T02:24:43.983Z,0.00
2024-01-28T02:25:43.929Z,0.00
2024-01-28T02:26:43.931Z,0.00
2024-01-28T02:27:44.050Z,0.00
2024-01-28T02:28:43.905Z,0.00
2024-01-28T02:29:43.931Z,0.00
2024-01-28T02:30:43.909Z,0.00
2024-01-28T02:31:43.908Z,0.00
2024-01-28T02:32:43.907Z,0.00
2024-01-28T02:33:43.962Z,0.00
2024-01-28T02:34:43.939Z,0.00
2024-01-28T02:35:43.877Z,0.00
2024-01-28T02:36:44.075Z,0.00
2024-01-28T02:37:43.833Z,0.00
2024-01-28T02:38:43.827Z,0.00
2024-01-28T02:39:43.946Z,0.00
2024-01-28T02:40:43.809Z,0.00
2024-01-28T02:41:43.801Z,0.00
2024-01-28T02:42:43.940Z,0.00
2024-01-28T02:43:43.786Z,0.00
2024-01-28T02:44:43.771Z,0.00
2024-01-28T02:45:43.813Z,0.00
2024-01-28T02:46:43.763Z,0.00
2024-01-28T02:47:43.756Z,0.00
2024-01-28T02:48:43.830Z,0.00
2024-01-28T02:49:44.407Z,0.00
2024-01-28T02:50:43.728Z,0.00
2024-01-28T02:51:43.885Z,0.00
2024-01-28T02:52:43.711Z,0.00
2024-01-28T02:53:43.715Z,0.00
2024-01-28T02:54:43.804Z,0.00
2024-01-28T02:55:43.746Z,0.00
2024-01-28T02:56:43.697Z,0.00
2024-01-28T02:57:43.721Z,0.00
2024-01-28T02:58:43.690Z,0.00
2024-01-28T02:59:43.654Z,0.00
2024-01-28T03:00:43.710Z,0.00
2024-01-28T03:01:43.689Z,0.00
2024-01-28T03:02:43.644Z,0.00
2024-01-28T03:03:43.742Z,0.00
2024-01-28T03:04:43.713Z,0.00
2024-01-28T03:05:43.605Z,0.00
2024-01-28T03:06:43.830Z,0.00
2024-01-28T03:07:43.629Z,0.00
2024-01-28T03:08:43.588Z,0.00
2024-01-28T03:09:43.673Z,0.00
2024-01-28T03:10:43.584Z,0.00
2024-01-28T03:11:43.618Z,0.00
2024-01-28T03:12:43.684Z,0.00
2024-01-28T03:13:43.585Z,0.00
2024-01-28T03:14:43.607Z,0.00
2024-01-28T03:15:43.657Z,0.00
2024-01-28T03:16:43.599Z,0.00
2024-01-28T03:17:43.601Z,0.00
2024-01-28T03:18:43.595Z,0.00
2024-01-28T03:19:43.699Z,0.00
2024-01-28T03:20:43.525Z,0.00
2024-01-28T03:21:43.597Z,0.00
2024-01-28T03:22:43.560Z,0.00
2024-01-28T03:23:43.534Z,0.00
2024-01-28T03:24:43.567Z,0.00
2024-01-28T03:25:43.483Z,0.00
2024-01-28T03:26:43.576Z,0.00
2024-01-28T03:27:43.565Z,0.00
2024-01-28T03:28:43.440Z,0.00
2024-01-28T03:29:43.456Z,0.00
2024-01-28T03:30:43.538Z,0.00
2024-01-28T03:31:43.447Z,0.00
2024-01-28T03:32:44.266Z,0.00
2024-01-28T03:33:43.692Z,0.00
2024-01-28T03:34:43.550Z,0.00
2024-01-28T03:35:43.405Z,0.00
2024-01-28T03:36:43.557Z,0.00
2024-01-28T03:37:43.430Z,0.00
2024-01-28T03:38:43.541Z,0.00
2024-01-28T03:39:43.413Z,0.00
2024-01-28T03:40:43.334Z,0.00
2024-01-28T03:41:43.598Z,0.00
2024-01-28T03:42:43.370Z,0.00
2024-01-28T03:43:43.344Z,0.00
2024-01-28T03:44:43.406Z,0.00
2024-01-28T03:45:43.458Z,0.00
2024-01-28T03:46:43.319Z,0.00
2024-01-28T03:47:45.726Z,0.00
2024-01-28T03:48:43.516Z,0.00
2024-01-28T03:49:43.376Z,0.00
2024-01-28T03:50:43.321Z,0.00
2024-01-28T03:51:43.336Z,0.00
2024-01-28T03:52:43.328Z,0.00
2024-01-28T03:53:43.347Z,0.00
2024-01-28T03:54:43.404Z,0.00
2024-01-28T03:55:43.320Z,0.00
2024-01-28T03:56:43.268Z,0.00
2024-01-28T03:57:43.441Z,0.00
2024-01-28T03:58:43.360Z,0.00
2024-01-28T03:59:43.474Z,0.00
2024-01-28T04:00:43.444Z,0.00
2024-01-28T04:01:43.481Z,0.00
2024-01-28T04:02:43.356Z,0.00
2024-01-28T04:03:43.220Z,0.00
2024-01-28T04:04:43.391Z,0.00
2024-01-28T04:05:43.232Z,0.00
2024-01-28T04:06:43.563Z,0.00
2024-01-28T04:07:43.235Z,0.00
2024-01-28T04:08:43.400Z,0.00
2024-01-28T04:09:43.209Z,0.00
2024-01-28T04:10:43.149Z,0.00
2024-01-28T04:11:43.098Z,0.00
2024-01-28T04:12:43.242Z,0.00
2024-01-28T04:13:43.348Z,0.00
2024-01-28T04:14:43.037Z,0.00
2024-01-28T04:15:43.092Z,0.00
2024-01-28T04:16:43.036Z,0.00
2024-01-28T04:17:43.090Z,0.00
2024-01-28T04:18:43.114Z,0.00
2024-01-28T04:19:43.278Z,0.00
2024-01-28T04:20:42.985Z,0.00
2024-01-28T04:21:43.060Z,0.00
2024-01-28T04:22:42.990Z,0.00
2024-01-28T04:23:42.994Z,0.00
2024-01-28T04:24:43.035Z,0.00
2024-01-28T04:25:43.010Z,0.00
2024-01-28T04:26:42.941Z,0.00
2024-01-28T04:27:42.990Z,0.00
2024-01-28T04:28:42.925Z,0.00
2024-01-28T04:29:42.922Z,0.00
2024-01-28T04:30:42.920Z,0.00
2024-01-28T04:31:42.913Z,0.00
2024-01-28T04:32:42.903Z,0.00
2024-01-28T04:33:43.027Z,0.00
2024-01-28T04:34:42.986Z,0.00
2024-01-28T04:35:42.887Z,0.00
2024-01-28T04:36:42.899Z,0.00
2024-01-28T04:37:42.846Z,0.00
2024-01-28T04:38:42.854Z,0.00
2024-01-28T04:39:42.866Z,0.00
2024-01-28T04:40:42.826Z,0.00
2024-01-28T04:41:42.813Z,0.00
2024-01-28T04:42:42.948Z,0.00
2024-01-28T04:43:42.786Z,0.00
2024-01-28T04:44:42.805Z,0.00
2024-01-28T04:45:42.813Z,0.00
2024-01-28T04:46:42.784Z,0.00
2024-01-28T04:47:42.770Z,0.00
2024-01-28T04:48:42.921Z,0.00
2024-01-28T04:49:45.637Z,0.00
2024-01-28T04:50:42.739Z,0.00
2024-01-28T04:51:42.761Z,0.00
2024-01-28T04:52:42.758Z,0.00
2024-01-28T04:53:42.699Z,0.00
2024-01-28T04:54:42.759Z,0.00
2024-01-28T04:55:42.703Z,0.00
2024-01-28T04:56:42.678Z,0.00
2024-01-28T04:57:42.697Z,0.00
2024-01-28T04:58:42.695Z,0.00
2024-01-28T04:59:42.668Z,0.00
2024-01-28T05:00:42.718Z,0.00
2024-01-28T05:01:42.734Z,0.00
2024-01-28T05:02:42.627Z,0.00
2024-01-28T05:03:42.652Z,0.00
2024-01-28T05:04:42.858Z,0.00
2024-01-28T05:05:42.663Z,0.00
2024-01-28T05:06:42.779Z,0.00
2024-01-28T05:07:42.587Z,0.00
2024-01-28T05:08:42.628Z,0.00
2024-01-28T05:09:42.594Z,0.00
2024-01-28T05:10:42.558Z,0.00
2024-01-28T05:11:42.548Z,0.00
2024-01-28T05:12:42.589Z,0.00
2024-01-28T05:13:42.587Z,0.00
2024-01-28T05:14:42.650Z,0.00
2024-01-28T05:15:42.613Z,0.00
2024-01-28T05:16:42.596Z,0.00
2024-01-28T05:17:42.563Z,0.00
2024-01-28T05:18:42.668Z,0.00
2024-01-28T05:19:42.658Z,0.00
2024-01-28T05:20:42.530Z,0.00
2024-01-28T05:21:42.606Z,0.00
2024-01-28T05:22:42.472Z,0.00
2024-01-28T05:23:42.445Z,0.00
2024-01-28T05:24:42.470Z,0.00
2024-01-28T05:25:42.478Z,0.00
2024-01-28T05:26:42.434Z,0.00
2024-01-28T05:27:42.421Z,0.00
2024-01-28T05:28:42.415Z,0.00
2024-01-28T05:29:42.385Z,0.00
2024-01-28T05:30:42.499Z,0.00
2024-01-28T05:31:42.382Z,0.00
2024-01-28T05:32:42.417Z,0.00
2024-01-28T05:33:42.631Z,0.00
2024-01-28T05:34:42.464Z,0.00
2024-01-28T05:35:42.343Z,0.00
2024-01-28T05:36:42.394Z,0.00
2024-01-28T05:37:42.319Z,0.00
2024-01-28T05:38:42.321Z,0.00
2024-01-28T05:39:42.339Z,0.00
2024-01-28T05:40:42.305Z,0.00
2024-01-28T05:41:42.287Z,0.00
2024-01-28T05:42:42.314Z,0.00
2024-01-28T05:43:42.265Z,0.00
2024-01-28T05:44:42.249Z,0.00
2024-01-28T05:45:42.281Z,0.00
2024-01-28T05:46:42.238Z,0.00
2024-01-28T05:47:42.250Z,0.00
2024-01-28T05:48:42.323Z,0.00
2024-01-28T05:49:42.383Z,0.00
2024-01-28T05:50:42.202Z,0.00
2024-01-28T05:51:42.208Z,0.00
2024-01-28T05:52:42.179Z,0.00
2024-01-28T05:53:42.200Z,0.00
2024-01-28T05:54:42.232Z,0.00
2024-01-28T05:55:42.180Z,0.00
2024-01-28T05:56:42.144Z,0.00
2024-01-28T05:57:42.203Z,0.00
2024-01-28T05:58:42.123Z,0.00
2024-01-28T05:59:42.160Z,0.00
2024-01-28T06:00:42.167Z,0.00
2024-01-28T06:01:42.143Z,0.00
2024-01-28T06:02:42.096Z,0.00
2024-01-28T06:03:42.214Z,0.00
2024-01-28T06:04:42.122Z,0.00
2024-01-28T06:05:42.092Z,0.00
2024-01-28T06:06:42.143Z,0.00
2024-01-28T06:07:42.073Z,0.00
2024-01-28T06:08:42.048Z,0.00
2024-01-28T06:09:42.093Z,0.00
2024-01-28T06:10:42.042Z,0.00
2024-01-28T06:11:42.016Z,0.00
2024-01-28T06:12:42.077Z,4.00
2024-01-28T06:13:42.045Z,4.00
2024-01-28T06:14:42.033Z,4.00
2024-01-28T06:15:42.050Z,0.00
2024-01-28T06:16:41.960Z,0.00
2024-01-28T06:17:42.007Z,4.00
2024-01-28T06:18:42.159Z,0.00
2024-01-28T06:19:41.972Z,4.00
2024-01-28T06:20:41.959Z,4.00
2024-01-28T06:21:41.969Z,4.00
2024-01-28T06:22:41.905Z,4.00
2024-01-28T06:23:41.915Z,4.00
2024-01-28T06:24:41.940Z,8.00
2024-01-28T06:25:41.916Z,8.00
2024-01-28T06:26:41.911Z,8.00
2024-01-28T06:27:41.903Z,8.00
2024-01-28T06:28:41.876Z,8.00
2024-01-28T06:29:41.856Z,12.00
2024-01-28T06:30:41.878Z,16.00
2024-01-28T06:31:41.850Z,16.00
2024-01-28T06:32:41.846Z,20.00
2024-01-28T06:33:41.950Z,24.00
2024-01-28T06:34:41.904Z,24.00
2024-01-28T06:35:41.787Z,28.00
2024-01-28T06:36:41.820Z,36.00
2024-01-28T06:37:41.768Z,40.00
2024-01-28T06:38:41.765Z,44.00
2024-01-28T06:39:41.818Z,48.00
2024-01-28T06:40:41.785Z,56.00
2024-01-28T06:41:41.734Z,64.00
2024-01-28T06:42:41.769Z,72.00
2024-01-28T06:43:41.712Z,80.00
2024-01-28T06:44:41.714Z,88.00
2024-01-28T06:45:41.748Z,96.00
2024-01-28T06:46:41.706Z,108.00
2024-01-28T06:47:41.772Z,120.00
2024-01-28T06:48:41.731Z,132.00
2024-01-28T06:49:41.762Z,144.00
2024-01-28T06:50:41.660Z,156.00
2024-01-28T06:51:41.707Z,168.00
2024-01-28T06:52:41.665Z,184.00
2024-01-28T06:53:41.638Z,200.00
2024-01-28T06:54:44.515Z,216.00
2024-01-28T06:55:41.605Z,228.00
2024-01-28T06:56:41.602Z,244.00
2024-01-28T06:57:41.623Z,268.00
2024-01-28T06:58:41.585Z,284.00
2024-01-28T06:59:41.583Z,304.00
2024-01-28T07:00:41.608Z,320.00
2024-01-28T07:01:41.618Z,344.00
2024-01-28T07:02:41.574Z,364.00
2024-01-28T07:03:41.721Z,388.00
2024-01-28T07:04:41.647Z,408.00
2024-01-28T07:05:41.546Z,436.00
2024-01-28T07:06:41.588Z,460.00
2024-01-28T07:07:41.498Z,484.00
2024-01-28T07:08:41.525Z,512.00
2024-01-28T07:09:41.523Z,536.00
2024-01-28T07:10:41.474Z,564.00
2024-01-28T07:11:41.471Z,600.00
2024-01-28T07:12:41.496Z,632.00
2024-01-28T07:13:41.448Z,660.00
2024-01-28T07:14:41.452Z,696.00
2024-01-28T07:15:41.497Z,724.00
2024-01-28T07:16:43.827Z,752.00
2024-01-28T07:17:41.428Z,780.00
2024-01-28T07:18:41.456Z,808.00
2024-01-28T07:19:41.409Z,840.00
2024-01-28T07:20:41.393Z,868.00
2024-01-28T07:21:41.405Z,896.00
2024-01-28T07:22:41.368Z,916.00
2024-01-28T07:23:41.350Z,948.00
2024-01-28T07:24:41.538Z,980.00
2024-01-28T07:25:41.336Z,1004.00
2024-01-28T07:26:41.336Z,1036.00
2024-01-28T07:27:41.356Z,1052.00
2024-01-28T07:28:41.307Z,1072.00
2024-01-28T07:29:43.069Z,1096.00
2024-01-28T07:30:41.352Z,1112.00
2024-01-28T07:31:41.405Z,1128.00
2024-01-28T07:32:41.337Z,1172.00
2024-01-28T07:33:41.575Z,1184.00
2024-01-28T07:34:41.356Z,1204.00
2024-01-28T07:35:41.249Z,1216.00
2024-01-28T07:36:41.297Z,1240.00
2024-01-28T07:37:41.227Z,1268.00
2024-01-28T07:38:41.232Z,1296.00
2024-01-28T07:39:41.238Z,1340.00
2024-01-28T07:40:41.211Z,1388.00
2024-01-28T07:41:41.187Z,1412.00
2024-01-28T07:42:41.259Z,1424.00
2024-01-28T07:43:41.183Z,1428.00
2024-01-28T07:44:41.175Z,1440.00
2024-01-28T07:45:41.195Z,1468.00
2024-01-28T07:46:41.150Z,1492.00
2024-01-28T07:47:43.121Z,1516.00
2024-01-28T07:48:41.326Z,1548.00
2024-01-28T07:49:41.233Z,1584.00
2024-01-28T07:50:41.128Z,1644.00
2024-01-28T07:51:41.137Z,1736.00
2024-01-28T07:52:41.098Z,1820.00
2024-01-28T07:53:42.418Z,1832.00
2024-01-28T07:54:41.135Z,1860.00
2024-01-28T07:55:41.075Z,1920.00
2024-01-28T07:56:41.085Z,1976.00
2024-01-28T07:57:41.182Z,2116.00
2024-01-28T07:58:41.056Z,2264.00
2024-01-28T07:59:41.035Z,2444.00
2024-01-28T08:00:41.063Z,2504.00
2024-01-28T08:01:41.050Z,2376.00
2024-01-28T08:02:41.009Z,2264.00
2024-01-28T08:03:41.088Z,2260.00
2024-01-28T08:04:41.031Z,2288.00
2024-01-28T08:05:40.989Z,2304.00
2024-01-28T08:06:41.072Z,2332.00
2024-01-28T08:07:40.968Z,2380.00
2024-01-28T08:08:40.982Z,2396.00
2024-01-28T08:09:40.961Z,2428.00
2024-01-28T08:10:40.960Z,2440.00
2024-01-28T08:11:40.940Z,2484.00
2024-01-28T08:12:40.986Z,2516.00
2024-01-28T08:13:40.937Z,2540.00
2024-01-28T08:14:40.903Z,2560.00
2024-01-28T08:15:40.926Z,2600.00
2024-01-28T08:16:40.898Z,2684.00
2024-01-28T08:17:40.924Z,2712.00
2024-01-28T08:18:41.087Z,2728.00
2024-01-28T08:19:40.967Z,2756.00
2024-01-28T08:20:40.861Z,2744.00
2024-01-28T08:21:40.939Z,2780.00
2024-01-28T08:22:40.851Z,2804.00
2024-01-28T08:23:40.838Z,2820.00
2024-01-28T08:24:40.948Z,2840.00
2024-01-28T08:25:40.861Z,2912.00
2024-01-28T08:26:40.800Z,2888.00
2024-01-28T08:27:40.835Z,2884.00
2024-01-28T08:28:40.837Z,2876.00
2024-01-28T08:29:40.779Z,2888.00
2024-01-28T08:30:40.822Z,2884.00
2024-01-28T08:31:40.760Z,2932.00
2024-01-28T08:32:40.773Z,2968.00
2024-01-28T08:33:40.856Z,3052.00
2024-01-28T08:34:40.834Z,3056.00
2024-01-28T08:35:42.686Z,3092.00
2024-01-28T08:36:40.752Z,3104.00
2024-01-28T08:37:40.708Z,3120.00
2024-01-28T08:38:40.714Z,3160.00
2024-01-28T08:39:40.724Z,3176.00
2024-01-28T08:40:40.683Z,3256.00
2024-01-28T08:41:40.689Z,3388.00
2024-01-28T08:42:40.746Z,5304.00
2024-01-28T08:43:40.659Z,15232.00
2024-01-28T08:44:40.659Z,22112.00
2024-01-28T08:45:40.669Z,19264.00
2024-01-28T08:46:40.676Z,20288.00
2024-01-28T08:47:40.660Z,25088.00
2024-01-28T08:48:40.844Z,28448.00
2024-01-28T08:49:40.713Z,22688.00
2024-01-28T08:50:40.617Z,12748.00
2024-01-28T08:51:40.630Z,11520.00
2024-01-28T08:52:40.616Z,13832.00
2024-01-28T08:53:40.811Z,13968.00
2024-01-28T08:54:40.646Z,16992.00
2024-01-28T08:55:40.673Z,18048.00
2024-01-28T08:56:40.626Z,19616.00
2024-01-28T08:57:40.686Z,19488.00
2024-01-28T08:58:40.570Z,18112.00
2024-01-28T08:59:40.655Z,17504.00
2024-01-28T09:00:40.621Z,18816.00
2024-01-28T09:01:40.587Z,26048.00
2024-01-28T09:02:40.542Z,29696.00
2024-01-28T09:03:40.615Z,25792.00
2024-01-28T09:04:40.600Z,15072.00
2024-01-28T09:05:40.558Z,16032.00
2024-01-28T09:06:40.562Z,23136.00
2024-01-28T09:07:40.520Z,34176.00
2024-01-28T09:08:40.512Z,44096.00
2024-01-28T09:09:40.691Z,47168.00
2024-01-28T09:10:40.510Z,39296.00
2024-01-28T09:11:40.548Z,43712.00
2024-01-28T09:12:40.582Z,31168.00
2024-01-28T09:13:40.503Z,27712.00
2024-01-28T09:14:40.499Z,35040.00
2024-01-28T09:15:40.614Z,39744.00
2024-01-28T09:16:40.504Z,42112.00
2024-01-28T09:17:40.543Z,30048.00
2024-01-28T09:18:40.543Z,26912.00
2024-01-28T09:19:40.515Z,20672.00
2024-01-28T09:20:40.501Z,25376.00
2024-01-28T09:21:40.497Z,27136.00
2024-01-28T09:22:40.529Z,25536.00
2024-01-28T09:23:40.502Z,19488.00
2024-01-28T09:24:40.544Z,18400.00
2024-01-28T09:25:40.490Z,29728.00
2024-01-28T09:26:40.490Z,31584.00
2024-01-28T09:27:40.558Z,26368.00
2024-01-28T09:28:40.486Z,25376.00
2024-01-28T09:29:40.496Z,27296.00
2024-01-28T09:30:40.554Z,27968.00
2024-01-28T09:31:40.644Z,33376.00
2024-01-28T09:32:40.552Z,38432.00
2024-01-28T09:33:40.571Z,41920.00
2024-01-28T09:34:40.554Z,35680.00
2024-01-28T09:35:40.492Z,30016.00
2024-01-28T09:36:40.546Z,32928.00
2024-01-28T09:37:40.502Z,35040.00
2024-01-28T09:38:43.536Z,35488.00
2024-01-28T09:39:40.540Z,33184.00
2024-01-28T09:40:40.485Z,33184.00
2024-01-28T09:41:40.490Z,32544.00
2024-01-28T09:42:40.542Z,25280.00
2024-01-28T09:43:40.515Z,17472.00
2024-01-28T09:44:40.506Z,15264.00
2024-01-28T09:45:40.531Z,13224.00
2024-01-28T09:46:40.500Z,10720.00
2024-01-28T09:47:40.724Z,9224.00
2024-01-28T09:48:40.636Z,7808.00
2024-01-28T09:49:40.667Z,7084.00
2024-01-28T09:50:40.515Z,6704.00
2024-01-28T09:51:40.533Z,6388.00
2024-01-28T09:52:40.510Z,6352.00
2024-01-28T09:53:40.508Z,6100.00
2024-01-28T09:54:40.634Z,5668.00
2024-01-28T09:55:40.536Z,5408.00
2024-01-28T09:56:42.556Z,5224.00
2024-01-28T09:57:40.538Z,4804.00
2024-01-28T09:58:40.505Z,4520.00
2024-01-28T09:59:40.514Z,4364.00
2024-01-28T10:00:40.557Z,4448.00
2024-01-28T10:01:40.551Z,4216.00
2024-01-28T10:02:43.676Z,4028.00
2024-01-28T10:03:40.587Z,4148.00
2024-01-28T10:04:40.698Z,4332.00
2024-01-28T10:05:40.544Z,4324.00
2024-01-28T10:06:40.626Z,4100.00
2024-01-28T10:07:40.566Z,3940.00
2024-01-28T10:08:43.024Z,3960.00
2024-01-28T10:09:40.551Z,4084.00
2024-01-28T10:10:40.498Z,4048.00
2024-01-28T10:11:40.492Z,3852.00
2024-01-28T10:12:40.517Z,3648.00
2024-01-28T10:13:40.480Z,3596.00
2024-01-28T10:14:40.481Z,3720.00
2024-01-28T10:15:40.502Z,3856.00
2024-01-28T10:16:40.485Z,3868.00
2024-01-28T10:17:40.570Z,3848.00
2024-01-28T10:18:40.542Z,3768.00
2024-01-28T10:19:40.535Z,3636.00
2024-01-28T10:20:40.462Z,3528.00
2024-01-28T10:21:40.490Z,3444.00
2024-01-28T10:22:40.450Z,3396.00
2024-01-28T10:23:40.447Z,3412.00
2024-01-28T10:24:40.510Z,3420.00
2024-01-28T10:25:40.441Z,3396.00
2024-01-28T10:26:40.461Z,3324.00
2024-01-28T10:27:40.474Z,3240.00
2024-01-28T10:28:40.433Z,3236.00
2024-01-28T10:29:40.435Z,3196.00
2024-01-28T10:30:40.434Z,3124.00
2024-01-28T10:31:40.419Z,3048.00
2024-01-28T10:32:41.405Z,2956.00
2024-01-28T10:33:40.585Z,2840.00
2024-01-28T10:34:40.457Z,2728.00
2024-01-28T10:35:40.410Z,2604.00
2024-01-28T10:36:40.417Z,2488.00
2024-01-28T10:37:40.394Z,2388.00
2024-01-28T10:38:40.381Z,2336.00
2024-01-28T10:39:40.420Z,2316.00
2024-01-28T10:40:40.485Z,2308.00
2024-01-28T10:41:40.372Z,2296.00
2024-01-28T10:42:41.437Z,2284.00
2024-01-28T10:43:40.381Z,2272.00
2024-01-28T10:44:40.389Z,2228.00
2024-01-28T10:45:40.376Z,2196.00
2024-01-28T10:46:40.365Z,2232.00
2024-01-28T10:47:40.368Z,2248.00
2024-01-28T10:48:40.418Z,2224.00
2024-01-28T10:49:40.424Z,2216.00
2024-01-28T10:50:40.322Z,2196.00
2024-01-28T10:51:40.381Z,2188.00
2024-01-28T10:52:40.312Z,2172.00
2024-01-28T10:53:40.305Z,2164.00
2024-01-28T10:54:40.338Z,2152.00
2024-01-28T10:55:40.848Z,2152.00
2024-01-28T10:56:40.293Z,2144.00
2024-01-28T10:57:40.363Z,2136.00
2024-01-28T10:58:40.279Z,2124.00
2024-01-28T10:59:40.281Z,2116.00
2024-01-28T11:00:40.351Z,2120.00
2024-01-28T11:01:40.303Z,2104.00
2024-01-28T11:02:40.269Z,2092.00
2024-01-28T11:03:40.286Z,2068.00
2024-01-28T11:04:40.312Z,2060.00
2024-01-28T11:05:40.283Z,2048.00
2024-01-28T11:06:40.256Z,2040.00
2024-01-28T11:07:43.553Z,2028.00
2024-01-28T11:08:40.243Z,2020.00
2024-01-28T11:09:40.262Z,2012.00
2024-01-28T11:10:40.205Z,2016.00
2024-01-28T11:11:40.217Z,2016.00
2024-01-28T11:12:40.254Z,2012.00
2024-01-28T11:13:40.273Z,2004.00
2024-01-28T11:14:42.742Z,2000.00
2024-01-28T11:15:40.196Z,2000.00
2024-01-28T11:16:40.178Z,2000.00
2024-01-28T11:17:40.178Z,2008.00
2024-01-28T11:18:40.296Z,2024.00
2024-01-28T11:19:40.244Z,2040.00
2024-01-28T11:20:40.188Z,2040.00
2024-01-28T11:21:40.197Z,2048.00
2024-01-28T11:22:40.141Z,2044.00
2024-01-28T11:23:40.237Z,2064.00
2024-01-28T11:24:40.236Z,2064.00
2024-01-28T11:25:40.140Z,2060.00
2024-01-28T11:26:43.273Z,2064.00
2024-01-28T11:27:40.135Z,2064.00
2024-01-28T11:28:40.119Z,2072.00
2024-01-28T11:29:40.105Z,2084.00
2024-01-28T11:30:40.152Z,2084.00
2024-01-28T11:31:40.100Z,2088.00
2024-01-28T11:32:41.470Z,2096.00
2024-01-28T11:33:40.169Z,2100.00
2024-01-28T11:34:40.136Z,2100.00
2024-01-28T11:35:40.065Z,2100.00
2024-01-28T11:36:40.089Z,2104.00
2024-01-28T11:37:40.057Z,2108.00
2024-01-28T11:38:40.607Z,2092.00
2024-01-28T11:39:40.108Z,2104.00
2024-01-28T11:40:40.053Z,2108.00
2024-01-28T11:41:40.032Z,2108.00
2024-01-28T11:42:40.181Z,2112.00
2024-01-28T11:43:40.041Z,2116.00
2024-01-28T11:44:41.790Z,2116.00
2024-01-28T11:45:40.103Z,2116.00
2024-01-28T11:46:40.050Z,2116.00
2024-01-28T11:47:40.099Z,2116.00
2024-01-28T11:48:40.107Z,2120.00
2024-01-28T11:49:40.116Z,2112.00
2024-01-28T11:50:40.145Z,2116.00
2024-01-28T11:51:40.038Z,2120.00
2024-01-28T11:52:39.968Z,2124.00
2024-01-28T11:53:39.965Z,2128.00
2024-01-28T11:54:40.118Z,2128.00
2024-01-28T11:55:39.952Z,2132.00
2024-01-28T11:56:42.151Z,2140.00
2024-01-28T11:57:39.984Z,2144.00
2024-01-28T11:58:39.936Z,2148.00
2024-01-28T11:59:39.958Z,2148.00
2024-01-28T12:00:40.017Z,2152.00
2024-01-28T12:01:39.960Z,2164.00
2024-01-28T12:02:42.380Z,2176.00
2024-01-28T12:03:39.958Z,2176.00
2024-01-28T12:04:39.947Z,2184.00
2024-01-28T12:05:39.929Z,2176.00
2024-01-28T12:06:40.057Z,2188.00
2024-01-28T12:07:40.029Z,2192.00
2024-01-28T12:08:39.898Z,2200.00
2024-01-28T12:09:39.974Z,2208.00
2024-01-28T12:10:39.887Z,2220.00
2024-01-28T12:11:39.864Z,2228.00
2024-01-28T12:12:39.913Z,2236.00
2024-01-28T12:13:39.886Z,2240.00
2024-01-28T12:14:39.857Z,2248.00
2024-01-28T12:15:39.873Z,2252.00
2024-01-28T12:16:39.842Z,2252.00
2024-01-28T12:17:39.855Z,2256.00
2024-01-28T12:18:40.000Z,2248.00
2024-01-28T12:19:40.061Z,2256.00
2024-01-28T12:20:39.808Z,2264.00
2024-01-28T12:21:39.836Z,2268.00
2024-01-28T12:22:39.801Z,2272.00
2024-01-28T12:23:39.806Z,2280.00
2024-01-28T12:24:41.918Z,2280.00
2024-01-28T12:25:39.833Z,2292.00
2024-01-28T12:26:39.797Z,2296.00
2024-01-28T12:27:39.848Z,2304.00
2024-01-28T12:28:39.771Z,2304.00
2024-01-28T12:29:39.779Z,2308.00
2024-01-28T12:30:39.828Z,2308.00
2024-01-28T12:31:39.837Z,2316.00
2024-01-28T12:32:39.900Z,2320.00
2024-01-28T12:33:39.887Z,2328.00
2024-01-28T12:34:39.836Z,2324.00
2024-01-28T12:35:39.748Z,2324.00
2024-01-28T12:36:39.766Z,2328.00
2024-01-28T12:37:39.720Z,2336.00
2024-01-28T12:38:39.732Z,2336.00
2024-01-28T12:39:39.739Z,2336.00
2024-01-28T12:40:39.713Z,2344.00
2024-01-28T12:41:39.700Z,2348.00